createdAt,value
2022-11-23T00:01:39.300Z,17.28
2022-11-23T00:04:12.407Z,17.27
2022-11-23T00:06:43.288Z,17.25
2022-11-23T00:09:13.650Z,17.25
2022-11-23T00:11:43.382Z,17.27
2022-11-23T00:14:13.097Z,17.34
2022-11-23T00:16:43.134Z,17.41
2022-11-23T00:19:12.837Z,17.48
2022-11-23T00:21:42.520Z,17.53
2022-11-23T00:24:14.454Z,17.55
2022-11-23T00:26:44.363Z,17.62
2022-11-23T00:29:14.193Z,17.69
2022-11-23T00:31:44.205Z,17.72
2022-11-23T00:34:13.894Z,17.75
2022-11-23T00:36:43.660Z,17.79
2022-11-23T00:39:14.097Z,17.83
2022-11-23T00:41:43.811Z,17.85
2022-11-23T00:44:13.574Z,17.90
2022-11-23T00:46:43.368Z,17.93
2022-11-23T00:49:13.057Z,17.94
2022-11-23T00:51:42.766Z,17.90
2022-11-23T00:54:12.525Z,17.90
2022-11-23T00:56:42.292Z,17.86
2022-11-23T00:59:12.184Z,17.81
2022-11-23T01:01:41.920Z,17.75
2022-11-23T01:04:11.920Z,17.72
2022-11-23T01:06:42.613Z,17.68
2022-11-23T01:09:21.397Z,17.62
2022-11-23T01:11:52.628Z,17.59
2022-11-23T01:14:26.620Z,17.59
2022-11-23T01:16:56.532Z,17.52
2022-11-23T01:19:26.526Z,17.49
2022-11-23T01:21:56.595Z,17.48
2022-11-23T01:24:27.542Z,17.42
2022-11-23T01:26:57.887Z,17.45
2022-11-23T01:29:29.734Z,17.55
2022-11-23T01:32:03.291Z,17.59
2022-11-23T01:34:33.172Z,17.65
2022-11-23T01:37:02.897Z,17.66
2022-11-23T01:39:32.780Z,17.66
2022-11-23T01:42:02.730Z,17.68
2022-11-23T01:44:36.234Z,17.66
2022-11-23T01:47:08.618Z,17.66
2022-11-23T01:49:44.065Z,17.65
2022-11-23T01:52:20.741Z,17.65
2022-11-23T01:54:56.958Z,17.61
2022-11-23T01:57:32.591Z,17.51
2022-11-23T02:00:03.494Z,17.42
2022-11-23T02:02:52.617Z,17.39
2022-11-23T02:05:25.515Z,17.36
2022-11-23T02:07:57.182Z,17.30
2022-11-23T02:10:28.619Z,17.30
2022-11-23T02:13:05.470Z,17.30
2022-11-23T02:15:39.375Z,17.28
2022-11-23T02:18:24.138Z,17.25
2022-11-23T02:20:55.463Z,17.21
2022-11-23T02:23:25.356Z,17.18
2022-11-23T02:26:20.596Z,17.14
2022-11-23T02:29:09.390Z,17.13
2022-11-23T02:31:39.386Z,17.11
2022-11-23T02:34:10.015Z,17.06
2022-11-23T02:36:45.976Z,17.04
2022-11-23T02:39:39.725Z,17.06
2022-11-23T02:42:09.765Z,17.00
2022-11-23T02:45:02.319Z,17.10
2022-11-23T02:47:33.122Z,17.13
2022-11-23T02:50:03.687Z,17.06
2022-11-23T02:52:33.563Z,17.00
2022-11-23T02:55:03.269Z,17.03
2022-11-23T02:57:33.043Z,17.03
2022-11-23T03:00:02.755Z,17.04
2022-11-23T03:02:32.506Z,17.06
2022-11-23T03:05:02.265Z,17.06
2022-11-23T03:07:32.189Z,17.07
2022-11-23T03:10:02.191Z,17.14
2022-11-23T03:12:32.698Z,17.23
2022-11-23T03:15:02.690Z,17.24
2022-11-23T03:17:33.688Z,17.27
2022-11-23T03:20:04.928Z,17.24
2022-11-23T03:22:41.108Z,17.28
2022-11-23T03:25:12.891Z,17.32
2022-11-23T03:27:42.867Z,17.32
2022-11-23T03:30:14.025Z,17.39
2022-11-23T03:32:44.115Z,17.44
2022-11-23T03:35:13.849Z,17.45
2022-11-23T03:38:14.127Z,17.56
2022-11-23T03:40:49.698Z,17.61
2022-11-23T03:43:26.043Z,17.58
2022-11-23T03:45:56.144Z,17.61
2022-11-23T03:48:26.021Z,17.63
2022-11-23T03:50:56.249Z,17.61
2022-11-23T03:53:25.945Z,17.61
2022-11-23T03:55:58.610Z,17.61
2022-11-23T03:58:31.897Z,17.61
2022-11-23T04:01:03.394Z,17.63
2022-11-23T04:03:34.896Z,17.61
2022-11-23T04:06:12.714Z,17.63
2022-11-23T04:09:02.063Z,17.61
2022-11-23T04:11:50.982Z,17.65
2022-11-23T04:14:22.010Z,17.66
2022-11-23T04:16:51.885Z,17.65
2022-11-23T04:19:23.992Z,17.61
2022-11-23T04:21:53.929Z,17.61
2022-11-23T04:24:24.487Z,17.63
2022-11-23T04:26:56.959Z,17.61
2022-11-23T04:29:27.599Z,17.55
2022-11-23T04:31:57.288Z,17.53
2022-11-23T04:34:27.136Z,17.45
2022-11-23T04:36:57.239Z,17.45
2022-11-23T04:39:33.922Z,17.41
2022-11-23T04:42:42.343Z,17.36
2022-11-23T04:45:12.664Z,17.44
2022-11-23T04:47:42.794Z,17.51
2022-11-23T04:50:16.292Z,17.53
2022-11-23T04:52:51.819Z,17.58
2022-11-23T04:55:28.026Z,17.55
2022-11-23T04:58:00.734Z,17.61
2022-11-23T05:00:33.722Z,17.62
2022-11-23T05:03:06.072Z,17.58
2022-11-23T05:05:42.399Z,17.62
2022-11-23T05:08:12.918Z,17.62
2022-11-23T05:11:12.190Z,17.66
2022-11-23T05:13:42.514Z,17.63
2022-11-23T05:16:12.624Z,17.59
2022-11-23T05:18:42.967Z,17.59
2022-11-23T05:21:13.649Z,17.49
2022-11-23T05:23:43.908Z,17.48
2022-11-23T05:26:14.183Z,17.42
2022-11-23T05:28:44.092Z,17.39
2022-11-23T05:31:16.742Z,17.34
2022-11-23T05:33:49.982Z,17.32
2022-11-23T05:36:27.586Z,17.31
2022-11-23T05:38:57.891Z,17.28
2022-11-23T05:41:32.941Z,17.28
2022-11-23T05:44:07.314Z,17.34
2022-11-23T05:46:37.537Z,17.35
2022-11-23T05:49:07.259Z,17.32
2022-11-23T05:51:40.896Z,17.38
2022-11-23T05:54:11.415Z,17.38
2022-11-23T05:56:45.311Z,17.45
2022-11-23T05:59:22.434Z,17.52
2022-11-23T06:01:58.662Z,17.62
2022-11-23T06:04:33.147Z,17.62
2022-11-23T06:07:03.297Z,17.61
2022-11-23T06:09:41.961Z,17.63
2022-11-23T06:12:14.600Z,17.58
2022-11-23T06:14:45.822Z,17.53
2022-11-23T06:17:18.180Z,17.58
2022-11-23T06:19:52.419Z,17.63
2022-11-23T06:22:22.410Z,17.65
2022-11-23T06:25:01.842Z,17.65
2022-11-23T06:27:40.089Z,17.59
2022-11-23T06:30:18.382Z,17.63
2022-11-23T06:32:49.973Z,17.65
2022-11-23T06:35:21.573Z,17.63
2022-11-23T06:37:53.186Z,17.65
2022-11-23T06:40:23.217Z,17.68
2022-11-23T06:42:59.413Z,17.69
2022-11-23T06:45:42.315Z,17.63
2022-11-23T06:48:15.914Z,17.65
2022-11-23T06:50:49.156Z,17.62
2022-11-23T06:53:21.219Z,17.69
2022-11-23T06:56:00.775Z,17.73
2022-11-23T06:58:33.168Z,17.73
2022-11-23T07:01:08.468Z,17.73
2022-11-23T07:03:47.236Z,17.66
2022-11-23T07:06:28.724Z,17.73
2022-11-23T07:09:04.027Z,17.75
2022-11-23T07:11:46.910Z,17.73
2022-11-23T07:14:18.535Z,17.72
2022-11-23T07:16:51.211Z,17.73
2022-11-23T07:19:21.728Z,17.76
2022-11-23T07:21:53.606Z,17.78
2022-11-23T07:24:23.873Z,17.76
2022-11-23T07:26:53.573Z,17.76
2022-11-23T07:29:23.511Z,17.75
2022-11-23T07:31:54.102Z,17.73
2022-11-23T07:34:26.977Z,17.78
2022-11-23T07:37:01.828Z,17.79
2022-11-23T07:39:55.570Z,17.75
2022-11-23T07:42:35.576Z,17.75
2022-11-23T07:45:08.337Z,17.82
2022-11-23T07:47:40.885Z,17.79
2022-11-23T07:50:13.422Z,17.76
2022-11-23T07:52:43.675Z,17.81
2022-11-23T07:55:13.392Z,17.81
2022-11-23T07:57:44.391Z,17.82
2022-11-23T08:00:14.502Z,17.82
2022-11-23T08:03:04.197Z,17.86
2022-11-23T08:05:34.574Z,17.86
2022-11-23T08:08:04.747Z,17.85
2022-11-23T08:10:40.007Z,17.87
2022-11-23T08:13:13.763Z,17.89
2022-11-23T08:15:44.885Z,17.90
2022-11-23T08:18:16.555Z,17.90
2022-11-23T08:20:46.346Z,17.92
2022-11-23T08:23:16.038Z,17.94
2022-11-23T08:25:46.026Z,18.00
2022-11-23T08:28:15.700Z,18.04
2022-11-23T08:30:45.874Z,18.03
2022-11-23T08:33:16.308Z,18.03
2022-11-23T08:35:45.986Z,18.04
2022-11-23T08:38:15.734Z,18.07
2022-11-23T08:40:45.450Z,18.07
2022-11-23T08:43:15.165Z,18.14
2022-11-23T08:45:44.813Z,18.12
2022-11-23T08:48:14.561Z,18.17
2022-11-23T08:50:45.555Z,18.20
2022-11-23T08:53:15.639Z,18.20
2022-11-23T08:55:45.793Z,18.24
2022-11-23T08:58:15.664Z,18.21
2022-11-23T09:00:45.440Z,18.27
2022-11-23T09:03:15.103Z,18.34
2022-11-23T09:05:44.823Z,18.38
2022-11-23T09:08:14.619Z,18.43
2022-11-23T09:10:44.780Z,18.38
2022-11-23T09:13:14.607Z,18.36
2022-11-23T09:15:44.299Z,18.40
2022-11-23T09:18:14.533Z,18.51
2022-11-23T09:20:44.316Z,18.51
2022-11-23T09:23:16.314Z,18.57
2022-11-23T09:25:49.478Z,18.76
2022-11-23T09:28:22.203Z,19.06
2022-11-23T09:30:52.658Z,19.39
2022-11-23T09:33:23.168Z,19.70
2022-11-23T09:36:04.103Z,19.74
2022-11-23T09:38:55.261Z,19.56
2022-11-23T09:41:42.846Z,19.68
2022-11-23T09:44:18.747Z,19.58
2022-11-23T09:47:08.367Z,19.50
2022-11-23T09:49:49.688Z,19.58
2022-11-23T09:52:20.973Z,19.77
2022-11-23T09:54:58.368Z,19.81
2022-11-23T09:57:32.901Z,19.99
2022-11-23T10:00:06.419Z,20.24
2022-11-23T10:02:41.965Z,20.11
2022-11-23T10:05:20.157Z,20.04
2022-11-23T10:08:16.874Z,19.95
2022-11-23T10:11:05.175Z,19.94
2022-11-23T10:13:47.038Z,20.09
2022-11-23T10:16:24.903Z,20.08
2022-11-23T10:19:20.967Z,20.09
2022-11-23T10:22:02.740Z,20.02
2022-11-23T10:24:45.737Z,20.02
2022-11-23T10:27:21.814Z,19.89
2022-11-23T10:29:55.977Z,19.91
2022-11-23T10:32:36.998Z,19.84
2022-11-23T10:35:39.841Z,19.88
2022-11-23T10:38:23.689Z,20.02
2022-11-23T10:41:12.196Z,20.66
2022-11-23T10:44:05.808Z,21.54
2022-11-23T10:46:40.305Z,21.59
2022-11-23T10:49:30.359Z,21.65
2022-11-23T10:52:31.129Z,22.54
2022-11-23T10:55:04.201Z,22.55
2022-11-23T10:57:45.699Z,22.31
2022-11-23T11:00:17.555Z,22.12
2022-11-23T11:02:58.553Z,21.49
2022-11-23T11:06:08.536Z,21.17
2022-11-23T11:09:03.669Z,20.88
2022-11-23T11:11:40.400Z,20.93
2022-11-23T11:14:24.330Z,22.41
2022-11-23T11:16:55.144Z,22.07
2022-11-23T11:19:34.725Z,22.14
2022-11-23T11:22:27.162Z,22.24
2022-11-23T11:24:57.584Z,21.78
2022-11-23T11:27:30.320Z,21.49
2022-11-23T11:30:24.020Z,21.96
2022-11-23T11:33:15.219Z,22.25
2022-11-23T11:35:50.303Z,22.14
2022-11-23T11:38:20.172Z,22.14
2022-11-23T11:40:54.041Z,22.10
2022-11-23T11:43:39.605Z,22.00
2022-11-23T11:46:32.145Z,21.92
2022-11-23T11:49:14.947Z,21.89
2022-11-23T11:51:56.325Z,21.78
2022-11-23T11:54:51.129Z,21.78
2022-11-23T11:57:57.155Z,21.85
2022-11-23T12:00:27.817Z,21.76
2022-11-23T12:03:21.820Z,21.69
2022-11-23T12:05:54.434Z,21.86
2022-11-23T12:08:32.700Z,23.40
2022-11-23T12:11:07.907Z,24.66
2022-11-23T12:13:40.361Z,25.18
2022-11-23T12:16:33.926Z,25.28
2022-11-23T12:19:19.222Z,25.61
2022-11-23T12:21:56.216Z,25.46
2022-11-23T12:24:51.026Z,25.10
2022-11-23T12:27:20.834Z,24.29
2022-11-23T12:29:56.067Z,23.81
2022-11-23T12:32:53.680Z,23.49
2022-11-23T12:35:48.008Z,23.31
2022-11-23T12:38:41.843Z,23.12
2022-11-23T12:41:19.970Z,23.12
2022-11-23T12:44:23.208Z,23.02
2022-11-23T12:47:29.955Z,23.08
2022-11-23T12:50:13.573Z,23.46
2022-11-23T12:53:15.995Z,24.48
2022-11-23T12:56:09.137Z,24.53
2022-11-23T12:58:40.520Z,24.72
2022-11-23T13:01:30.872Z,24.69
2022-11-23T13:04:30.533Z,25.25
2022-11-23T13:07:29.736Z,25.06
2022-11-23T13:10:51.162Z,25.57
2022-11-23T13:13:56.640Z,26.94
2022-11-23T13:16:56.744Z,27.49
2022-11-23T13:20:00.134Z,25.99
2022-11-23T13:22:32.898Z,25.61
2022-11-23T13:25:14.958Z,25.51
2022-11-23T13:27:57.191Z,25.45
2022-11-23T13:33:38.891Z,26.81
2022-11-23T13:36:19.559Z,26.19
2022-11-23T13:38:49.947Z,25.66
2022-11-23T13:41:37.153Z,26.48
2022-11-23T13:44:14.448Z,25.72
2022-11-23T13:46:45.624Z,25.37
2022-11-23T13:49:41.525Z,25.33
2022-11-23T13:52:27.625Z,25.17
2022-11-23T13:55:12.981Z,26.40
2022-11-23T13:57:45.563Z,25.94
2022-11-23T14:00:51.694Z,26.06
2022-11-23T14:03:54.036Z,27.15
2022-11-23T14:06:53.316Z,27.91
2022-11-23T14:09:45.305Z,28.21
2022-11-23T14:12:38.243Z,28.83
2022-11-23T14:15:17.308Z,28.15
2022-11-23T14:18:18.199Z,28.76
2022-11-23T14:20:55.400Z,27.02
2022-11-23T14:24:01.905Z,25.88
2022-11-23T14:27:30.878Z,25.52
2022-11-23T14:30:27.548Z,25.33
2022-11-23T14:33:18.642Z,26.87
2022-11-23T14:35:58.906Z,28.04
2022-11-23T14:38:59.439Z,28.41
2022-11-23T14:41:33.705Z,28.77
2022-11-23T14:44:06.091Z,28.97
2022-11-23T14:46:36.120Z,28.75
2022-11-23T14:49:08.546Z,28.36
2022-11-23T14:51:45.093Z,27.83
2022-11-23T14:54:17.804Z,27.03
2022-11-23T14:56:50.028Z,26.24
2022-11-23T14:59:20.068Z,25.85
2022-11-23T15:01:53.608Z,25.81
2022-11-23T15:04:35.593Z,25.93
2022-11-23T15:07:13.293Z,26.19
2022-11-23T15:10:18.574Z,27.87
2022-11-23T15:12:50.563Z,28.92
2022-11-23T15:15:23.703Z,29.44
2022-11-23T15:18:04.304Z,29.03
2022-11-23T15:20:38.049Z,29.69
2022-11-23T15:23:08.072Z,29.95
2022-11-23T15:25:38.587Z,29.02
2022-11-23T15:28:18.530Z,27.38
2022-11-23T15:30:51.326Z,27.16
2022-11-23T15:33:25.096Z,26.70
2022-11-23T15:35:56.776Z,26.39
2022-11-23T15:38:27.628Z,26.74
2022-11-23T15:41:06.453Z,28.00
2022-11-23T15:43:36.351Z,28.99
2022-11-23T15:46:15.647Z,29.43
2022-11-23T15:48:51.257Z,30.33
2022-11-23T15:51:40.194Z,31.01
2022-11-23T15:54:26.691Z,30.60
2022-11-23T15:57:01.214Z,31.18
2022-11-23T15:59:43.563Z,31.87
2022-11-23T16:02:24.332Z,32.04
2022-11-23T16:05:24.882Z,32.28
2022-11-23T16:07:58.682Z,30.06
2022-11-23T16:10:31.184Z,28.90
2022-11-23T16:13:07.213Z,28.34
2022-11-23T16:15:39.664Z,28.22
2022-11-23T16:18:18.494Z,27.69
2022-11-23T16:20:56.428Z,28.73
2022-11-23T16:23:30.012Z,29.95
2022-11-23T16:26:03.524Z,30.27
2022-11-23T16:28:51.504Z,29.23
2022-11-23T16:31:30.099Z,28.12
2022-11-23T16:34:00.678Z,27.38
2022-11-23T16:36:30.794Z,26.75
2022-11-23T16:39:05.363Z,26.24
2022-11-23T16:41:36.045Z,26.04
2022-11-23T16:44:06.223Z,26.89
2022-11-23T16:46:41.933Z,28.53
2022-11-23T16:49:19.941Z,29.51
2022-11-23T16:51:57.576Z,30.29
2022-11-23T16:54:27.810Z,30.41
2022-11-23T16:56:57.582Z,30.06
2022-11-23T16:59:27.497Z,30.30
2022-11-23T17:01:57.856Z,30.77
2022-11-23T17:04:27.771Z,30.68
2022-11-23T17:06:57.535Z,30.70
2022-11-23T17:09:27.196Z,30.70
2022-11-23T17:11:56.898Z,30.19
2022-11-23T17:14:30.093Z,29.24
2022-11-23T17:17:03.363Z,28.18
2022-11-23T17:19:33.992Z,27.30
2022-11-23T17:22:03.900Z,27.66
2022-11-23T17:24:34.130Z,27.69
2022-11-23T17:27:04.992Z,26.95
2022-11-23T17:29:40.307Z,26.47
2022-11-23T17:32:16.053Z,26.88
2022-11-23T17:34:46.660Z,27.78
2022-11-23T17:37:22.704Z,27.35
2022-11-23T17:39:53.250Z,26.24
2022-11-23T17:42:23.007Z,25.85
2022-11-23T17:44:52.766Z,25.79
2022-11-23T17:47:32.826Z,25.76
2022-11-23T17:50:04.513Z,26.09
2022-11-23T17:52:35.056Z,26.13
2022-11-23T17:55:05.210Z,25.93
2022-11-23T17:57:34.899Z,26.48
2022-11-23T18:00:05.163Z,26.48
2022-11-23T18:02:41.350Z,26.55
2022-11-23T18:05:16.501Z,26.34
2022-11-23T18:07:49.880Z,25.94
2022-11-23T18:10:20.427Z,25.49
2022-11-23T18:12:50.609Z,25.02
2022-11-23T18:15:20.400Z,24.72
2022-11-23T18:17:50.118Z,24.66
2022-11-23T18:20:20.205Z,24.97
2022-11-23T18:22:50.172Z,25.59
2022-11-23T18:25:19.881Z,26.19
2022-11-23T18:27:50.205Z,27.45
2022-11-23T18:30:19.980Z,28.22
2022-11-23T18:32:49.662Z,28.15
2022-11-23T18:35:20.225Z,27.83
2022-11-23T18:37:50.085Z,27.49
2022-11-23T18:40:19.916Z,27.94
2022-11-23T18:42:49.660Z,26.61
2022-11-23T18:45:19.427Z,26.81
2022-11-23T18:47:49.087Z,25.89
2022-11-23T18:50:19.124Z,26.50
2022-11-23T18:52:48.794Z,26.89
2022-11-23T18:55:18.556Z,27.20
2022-11-23T18:57:49.154Z,27.73
2022-11-23T19:00:20.081Z,27.78
2022-11-23T19:02:57.651Z,27.54
2022-11-23T19:05:29.176Z,27.93
2022-11-23T19:08:08.949Z,27.78
2022-11-23T19:10:39.967Z,27.64
2022-11-23T19:13:10.191Z,27.36
2022-11-23T19:15:40.858Z,26.75
2022-11-23T19:18:10.992Z,26.52
2022-11-23T19:20:41.256Z,26.26
2022-11-23T19:23:11.377Z,25.99
2022-11-23T19:25:42.464Z,25.61
2022-11-23T19:28:12.288Z,25.66
2022-11-23T19:30:42.013Z,25.76
2022-11-23T19:33:12.446Z,25.59
2022-11-23T19:35:42.122Z,25.42
2022-11-23T19:38:12.591Z,25.46
2022-11-23T19:40:42.276Z,25.37
2022-11-23T19:43:12.307Z,25.33
2022-11-23T19:45:42.063Z,25.25
2022-11-23T19:48:11.800Z,25.15
2022-11-23T19:50:41.706Z,24.98
2022-11-23T19:53:13.013Z,24.84
2022-11-23T19:55:43.330Z,24.66
2022-11-23T19:58:15.277Z,24.56
2022-11-23T20:00:48.183Z,24.33
2022-11-23T20:03:18.648Z,24.18
2022-11-23T20:05:57.096Z,24.19
2022-11-23T20:08:27.555Z,24.09
2022-11-23T20:10:57.996Z,24.04
2022-11-23T20:13:28.262Z,23.96
2022-11-23T20:16:04.066Z,23.91
2022-11-23T20:18:34.460Z,23.87
2022-11-23T20:21:04.388Z,23.84
2022-11-23T20:23:34.053Z,24.12
2022-11-23T20:26:03.725Z,24.40
2022-11-23T20:28:33.569Z,24.48
2022-11-23T20:31:18.371Z,24.36
2022-11-23T20:33:54.974Z,24.32
2022-11-23T20:36:27.862Z,24.02
2022-11-23T20:38:58.934Z,23.74
2022-11-23T20:41:31.407Z,23.51
2022-11-23T20:44:04.176Z,23.42
2022-11-23T20:49:26.201Z,23.02
2022-11-23T20:51:56.664Z,23.01
2022-11-23T20:54:26.337Z,22.84
2022-11-23T20:56:56.077Z,22.85
2022-11-23T20:59:26.058Z,22.72
2022-11-23T21:01:56.211Z,22.58
2022-11-23T21:04:25.973Z,22.43
2022-11-23T21:06:56.192Z,22.36
2022-11-23T21:09:25.964Z,22.31
2022-11-23T21:12:13.844Z,22.29
2022-11-23T21:14:44.425Z,22.21
2022-11-23T21:17:14.194Z,22.06
2022-11-23T21:19:43.907Z,21.93
2022-11-23T21:22:15.693Z,21.83
2022-11-23T21:24:45.701Z,21.79
2022-11-23T21:27:15.781Z,21.69
2022-11-23T21:29:46.135Z,21.63
2022-11-23T21:32:15.883Z,21.62
2022-11-23T21:34:45.575Z,21.48
2022-11-23T21:37:15.259Z,21.35
2022-11-23T21:39:51.117Z,21.41
2022-11-23T21:42:22.903Z,21.32
2022-11-23T21:44:53.253Z,21.35
2022-11-23T21:47:23.250Z,21.23
2022-11-23T21:49:52.980Z,21.14
2022-11-23T21:52:22.723Z,20.98
2022-11-23T21:54:52.408Z,20.88
2022-11-23T21:57:22.193Z,20.74
2022-11-23T21:59:52.041Z,20.72
2022-11-23T22:02:21.990Z,20.72
2022-11-23T22:04:52.202Z,20.69
2022-11-23T22:07:22.392Z,20.74
2022-11-23T22:09:52.291Z,20.62
2022-11-23T22:12:22.291Z,20.49
2022-11-23T22:14:52.089Z,20.39
2022-11-23T22:17:21.777Z,20.26
2022-11-23T22:19:51.653Z,20.32
2022-11-23T22:22:21.344Z,20.25
2022-11-23T22:24:51.042Z,20.18
2022-11-23T22:27:20.854Z,20.22
2022-11-23T22:29:51.101Z,20.12
2022-11-23T22:32:21.689Z,20.05
2022-11-23T22:34:51.531Z,20.04
2022-11-23T22:37:22.175Z,20.24
2022-11-23T22:39:52.148Z,20.05
2022-11-23T22:42:22.373Z,19.91
2022-11-23T22:44:52.507Z,19.87
2022-11-23T22:47:22.244Z,19.77
2022-11-23T22:49:52.014Z,19.63
2022-11-23T22:52:21.681Z,19.53
2022-11-23T22:54:51.390Z,19.50
2022-11-23T22:57:21.569Z,19.45
2022-11-23T22:59:54.253Z,19.40
2022-11-23T23:02:24.747Z,19.41
2022-11-23T23:04:54.572Z,19.50
2022-11-23T23:07:24.391Z,19.54
2022-11-23T23:09:54.603Z,19.49
2022-11-23T23:12:24.399Z,19.39
2022-11-23T23:14:57.201Z,19.22
2022-11-23T23:17:27.275Z,19.05
2022-11-23T23:19:56.998Z,18.95
2022-11-23T23:22:26.946Z,18.87
2022-11-23T23:24:56.643Z,18.89
2022-11-23T23:27:26.523Z,18.82
2022-11-23T23:29:56.270Z,18.76
2022-11-23T23:32:28.942Z,18.65
2022-11-23T23:34:58.825Z,18.61
2022-11-23T23:37:29.442Z,18.47
2022-11-23T23:39:59.148Z,18.41
2022-11-23T23:42:28.827Z,18.36
2022-11-23T23:44:59.044Z,18.24
2022-11-23T23:47:28.769Z,18.16
2022-11-23T23:49:58.580Z,18.04
2022-11-23T23:52:28.407Z,18.07
2022-11-23T23:54:58.593Z,18.07
2022-11-23T23:57:30.507Z,18.00
